createdAt,value
2022-09-28T00:01:14.985Z,99998.16
2022-09-28T00:03:18.338Z,99995.63
2022-09-28T00:05:21.733Z,99986.00
2022-09-28T00:07:25.245Z,99987.69
2022-09-28T00:09:28.766Z,99985.88
2022-09-28T00:11:33.454Z,99987.69
2022-09-28T00:13:36.902Z,99988.53
2022-09-28T00:15:40.243Z,99980.59
2022-09-28T00:17:45.937Z,99984.94
2022-09-28T00:19:49.912Z,99975.94
2022-09-28T00:21:53.204Z,99970.53
2022-09-28T00:24:24.062Z,99974.00
2022-09-28T00:26:31.535Z,99970.41
2022-09-28T00:28:34.800Z,99976.47
2022-09-28T00:30:38.218Z,99972.84
2022-09-28T00:32:41.518Z,99970.94
2022-09-28T00:34:48.945Z,99965.66
2022-09-28T00:36:52.279Z,99969.00
2022-09-28T00:38:56.612Z,99976.00
2022-09-28T00:40:59.975Z,99969.00
2022-09-28T00:43:18.805Z,99970.69
2022-09-28T00:45:24.085Z,99969.00
2022-09-28T00:47:38.418Z,99970.94
2022-09-28T00:49:46.567Z,99960.59
2022-09-28T00:51:51.312Z,99965.03
2022-09-28T00:53:57.150Z,99962.72
2022-09-28T00:56:04.278Z,99964.63
2022-09-28T00:58:12.627Z,99964.72
2022-09-28T01:00:16.717Z,99971.94
2022-09-28T01:02:20.996Z,99978.31
2022-09-28T01:04:28.040Z,99967.84
2022-09-28T01:06:35.950Z,99974.19
2022-09-28T01:08:41.358Z,99973.44
2022-09-28T01:10:44.787Z,99969.13
2022-09-28T01:12:49.188Z,99974.50
2022-09-28T01:14:54.005Z,99971.03
2022-09-28T01:17:07.686Z,99971.88
2022-09-28T01:19:35.089Z,99974.41
2022-09-28T01:21:51.185Z,99982.25
2022-09-28T01:24:19.559Z,99978.63
2022-09-28T01:26:54.597Z,99975.88
2022-09-28T01:29:04.744Z,99970.47
2022-09-28T01:31:13.758Z,99981.91
2022-09-28T01:33:24.433Z,99984.31
2022-09-28T01:35:33.625Z,99970.38
2022-09-28T01:37:43.089Z,99980.94
2022-09-28T01:39:50.174Z,99972.91
2022-09-28T01:42:02.037Z,99972.06
2022-09-28T01:44:08.858Z,99973.72
2022-09-28T01:46:16.414Z,99985.16
2022-09-28T01:48:25.842Z,99973.53
2022-09-28T01:50:34.709Z,99966.44
2022-09-28T01:52:45.753Z,99973.53
2022-09-28T01:54:54.570Z,99982.41
2022-09-28T01:57:05.765Z,99974.47
2022-09-28T01:59:15.126Z,99977.94
2022-09-28T02:01:23.710Z,99977.13
2022-09-28T02:03:34.063Z,99977.13
2022-09-28T02:05:40.009Z,99966.53
2022-09-28T02:07:47.969Z,99965.69
2022-09-28T02:09:57.312Z,99958.72
2022-09-28T02:12:06.879Z,99973.63
2022-09-28T02:14:13.290Z,99972.16
2022-09-28T02:16:22.995Z,99966.03
2022-09-28T02:18:26.925Z,99974.19
2022-09-28T02:20:33.328Z,99974.41
2022-09-28T02:22:44.312Z,99972.72
2022-09-28T02:24:55.677Z,99975.47
2022-09-28T02:27:10.377Z,99964.03
2022-09-28T02:29:14.549Z,99965.84
2022-09-28T02:31:18.774Z,99966.81
2022-09-28T02:33:26.733Z,99963.44
2022-09-28T02:35:31.070Z,99967.88
2022-09-28T02:37:34.838Z,99971.47
2022-09-28T02:39:38.651Z,99978.44
2022-09-28T02:41:56.530Z,99971.47
2022-09-28T02:44:12.380Z,99973.28
2022-09-28T02:46:28.930Z,99970.63
2022-09-28T02:49:20.520Z,99967.16
2022-09-28T02:51:33.368Z,99970.63
2022-09-28T02:54:06.308Z,99976.75
2022-09-28T02:56:24.116Z,99966.16
2022-09-28T02:58:40.164Z,99969.03
2022-09-28T03:00:56.388Z,99964.69
2022-09-28T03:03:05.821Z,99963.88
2022-09-28T03:05:20.286Z,99967.47
2022-09-28T03:07:26.566Z,99960.59
2022-09-28T03:09:37.410Z,99969.63
2022-09-28T03:11:48.092Z,99970.56
2022-09-28T03:13:53.056Z,99968.75
2022-09-28T03:16:15.671Z,99966.84
2022-09-28T03:18:21.314Z,99968.53
2022-09-28T03:20:25.371Z,99969.38
2022-09-28T03:22:29.423Z,99965.03
2022-09-28T03:24:33.430Z,99966.84
2022-09-28T03:26:39.751Z,99966.84
2022-09-28T03:28:44.406Z,99968.75
2022-09-28T03:30:54.472Z,99965.38
2022-09-28T03:33:01.037Z,99969.22
2022-09-28T03:35:09.532Z,99969.22
2022-09-28T03:37:13.141Z,99971.09
2022-09-28T03:39:17.134Z,99978.06
2022-09-28T03:41:20.804Z,99974.50
2022-09-28T03:43:24.875Z,99978.72
2022-09-28T03:45:30.361Z,99990.00
2022-09-28T03:47:34.436Z,99984.59
2022-09-28T03:49:39.777Z,99978.38
2022-09-28T03:51:49.219Z,99977.44
2022-09-28T03:53:52.699Z,99976.38
2022-09-28T03:55:56.372Z,99977.19
2022-09-28T03:58:00.290Z,99975.28
2022-09-28T04:00:04.528Z,99980.56
2022-09-28T04:02:17.277Z,99981.53
2022-09-28T04:04:21.163Z,99981.53
2022-09-28T04:06:26.824Z,99981.53
2022-09-28T04:08:30.793Z,99981.53
2022-09-28T04:10:35.334Z,99975.28
2022-09-28T04:12:40.113Z,99976.97
2022-09-28T04:14:44.094Z,99982.25
2022-09-28T04:16:48.839Z,99978.66
2022-09-28T04:18:53.085Z,99976.97
2022-09-28T04:21:30.254Z,99989.25
2022-09-28T04:23:42.159Z,99988.41
2022-09-28T04:25:48.948Z,99987.31
2022-09-28T04:28:09.749Z,99992.59
2022-09-28T04:30:14.072Z,99989.00
2022-09-28T04:32:21.887Z,99989.88
2022-09-28T04:34:25.603Z,99989.88
2022-09-28T04:36:30.896Z,99988.19
2022-09-28T04:38:51.919Z,99989.13
2022-09-28T04:40:59.153Z,99988.41
2022-09-28T04:43:03.180Z,99983.13
2022-09-28T04:45:08.091Z,99992.84
2022-09-28T04:47:15.448Z,99997.16
2022-09-28T04:49:38.574Z,99994.53
2022-09-28T04:51:48.872Z,99985.75
2022-09-28T04:53:52.700Z,99996.34
2022-09-28T04:55:59.185Z,99992.72
2022-09-28T04:58:05.529Z,99991.88
2022-09-28T05:00:10.997Z,99982.25
2022-09-28T05:02:17.311Z,99990.41
2022-09-28T05:04:50.560Z,99979.97
2022-09-28T05:07:28.215Z,99977.44
2022-09-28T05:09:37.601Z,99975.72
2022-09-28T05:11:42.375Z,99983.03
2022-09-28T05:13:51.865Z,99979.66
2022-09-28T05:16:01.737Z,99986.94
2022-09-28T05:18:09.775Z,99987.19
2022-09-28T05:20:22.096Z,99986.34
2022-09-28T05:22:25.720Z,99983.78
2022-09-28T05:24:33.710Z,99984.75
2022-09-28T05:26:37.250Z,99987.59
2022-09-28T05:28:41.349Z,99981.47
2022-09-28T05:31:16.920Z,99980.84
2022-09-28T05:33:34.979Z,99982.75
2022-09-28T05:35:53.798Z,99983.81
2022-09-28T05:38:04.232Z,99977.88
2022-09-28T05:40:10.401Z,99981.66
2022-09-28T05:42:15.232Z,99973.13
2022-09-28T05:44:20.119Z,99973.25
2022-09-28T05:46:25.047Z,99982.13
2022-09-28T05:48:29.897Z,99982.13
2022-09-28T05:50:33.994Z,99981.25
2022-09-28T05:52:37.569Z,99976.84
2022-09-28T05:54:41.399Z,99981.25
2022-09-28T05:56:46.680Z,99980.41
2022-09-28T05:58:50.375Z,99986.53
2022-09-28T06:00:56.719Z,99983.88
2022-09-28T06:03:06.608Z,99994.44
2022-09-28T06:05:12.583Z,99990.16
2022-09-28T06:07:16.367Z,99984.97
2022-09-28T06:09:25.179Z,99987.63
2022-09-28T06:11:38.435Z,99994.78
2022-09-28T06:13:54.240Z,99995.84
2022-09-28T06:15:57.832Z,99992.47
2022-09-28T06:18:04.836Z,99993.53
2022-09-28T06:20:13.205Z,100002.50
2022-09-28T06:22:45.398Z,100000.81
2022-09-28T06:24:50.390Z,100000.91
2022-09-28T06:26:54.231Z,99998.16
2022-09-28T06:29:00.886Z,99998.16
2022-09-28T06:31:05.055Z,99993.72
2022-09-28T06:33:14.548Z,99992.88
2022-09-28T06:35:18.455Z,99993.72
2022-09-28T06:37:22.479Z,100003.34
2022-09-28T06:39:27.674Z,99995.41
2022-09-28T06:41:32.002Z,99999.88
2022-09-28T06:43:40.073Z,100005.97
2022-09-28T06:45:55.716Z,100012.84
2022-09-28T06:48:22.898Z,100018.88
2022-09-28T06:50:27.906Z,100023.84
2022-09-28T06:52:54.520Z,100028.78
2022-09-28T06:55:12.219Z,100019.81
2022-09-28T06:57:19.543Z,100021.50
2022-09-28T06:59:24.461Z,100018.03
2022-09-28T07:01:30.625Z,100011.06
2022-09-28T07:03:42.788Z,100016.22
2022-09-28T07:06:24.508Z,100018.88
2022-09-28T07:09:03.129Z,100028.38
2022-09-28T07:11:44.602Z,100024.78
2022-09-28T07:14:15.151Z,100024.69
2022-09-28T07:16:26.668Z,100024.50
2022-09-28T07:18:35.270Z,100025.25
2022-09-28T07:20:51.330Z,100032.72
2022-09-28T07:23:04.629Z,100027.97
2022-09-28T07:25:45.836Z,100029.22
2022-09-28T07:28:20.231Z,100022.88
2022-09-28T07:30:45.818Z,100031.56
2022-09-28T07:32:54.169Z,100017.38
2022-09-28T07:35:20.540Z,100025.00
2022-09-28T07:37:27.423Z,100019.47
2022-09-28T07:39:31.374Z,100020.31
2022-09-28T07:41:34.073Z,100027.06
2022-09-28T07:43:41.398Z,100025.91
2022-09-28T07:45:45.671Z,100032.56
2022-09-28T07:47:49.902Z,100027.91
2022-09-28T07:50:14.044Z,100028.53
2022-09-28T07:52:49.836Z,100028.31
2022-09-28T07:55:07.308Z,100032.53
2022-09-28T07:57:48.292Z,100041.09
2022-09-28T08:00:02.517Z,100034.63
2022-09-28T08:02:20.558Z,100032.59
2022-09-28T08:04:25.484Z,100034.56
2022-09-28T08:06:31.704Z,100036.66
2022-09-28T08:08:37.284Z,100025.63
2022-09-28T08:10:46.795Z,100028.13
2022-09-28T08:13:02.093Z,100025.06
2022-09-28T08:15:25.149Z,100028.63
2022-09-28T08:17:32.494Z,100034.19
2022-09-28T08:19:56.330Z,100033.53
2022-09-28T08:22:00.089Z,100032.84
2022-09-28T08:24:05.900Z,100027.16
2022-09-28T08:26:15.206Z,100034.88
2022-09-28T08:28:19.699Z,100023.44
2022-09-28T08:30:24.944Z,100025.34
2022-09-28T08:32:50.298Z,100025.00
2022-09-28T08:35:12.377Z,100027.03
2022-09-28T08:37:27.217Z,100025.09
2022-09-28T08:39:50.895Z,100026.19
2022-09-28T08:42:31.644Z,100027.66
2022-09-28T08:45:00.662Z,100027.28
2022-09-28T08:47:46.492Z,100028.03
2022-09-28T08:50:08.694Z,100022.34
2022-09-28T08:52:25.289Z,100021.88
2022-09-28T08:54:49.214Z,100022.31
2022-09-28T08:57:14.130Z,100019.59
2022-09-28T08:59:21.117Z,100022.09
2022-09-28T09:01:39.127Z,100026.06
2022-09-28T09:03:50.443Z,100026.19
2022-09-28T09:06:20.587Z,100026.78
2022-09-28T09:08:43.182Z,100025.94
2022-09-28T09:10:53.577Z,100027.13
2022-09-28T09:13:25.422Z,100027.59
2022-09-28T09:15:41.739Z,100026.50
2022-09-28T09:18:11.092Z,100014.28
2022-09-28T09:20:35.710Z,100012.06
2022-09-28T09:22:59.401Z,100012.06
2022-09-28T09:25:18.788Z,100004.84
2022-09-28T09:27:48.751Z,100011.63
2022-09-28T09:30:06.499Z,100017.22
2022-09-28T09:32:27.834Z,100000.81
2022-09-28T09:34:56.557Z,100013.50
2022-09-28T09:37:28.138Z,100008.72
2022-09-28T09:40:24.604Z,100007.22
2022-09-28T09:43:04.233Z,100016.63
2022-09-28T09:45:50.449Z,100007.03
2022-09-28T09:48:20.411Z,100006.81
2022-09-28T09:50:30.845Z,100007.16
2022-09-28T09:52:47.362Z,100008.44
2022-09-28T09:54:56.155Z,100003.50
2022-09-28T09:57:22.681Z,99994.13
2022-09-28T09:59:46.131Z,99999.06
2022-09-28T10:02:02.976Z,100003.41
2022-09-28T10:04:22.621Z,100016.53
2022-09-28T10:06:32.293Z,100005.66
2022-09-28T10:08:45.968Z,100010.47
2022-09-28T10:10:54.570Z,100000.31
2022-09-28T10:12:58.688Z,100000.41
2022-09-28T10:15:07.786Z,99993.88
2022-09-28T10:17:27.534Z,99995.66
2022-09-28T10:19:58.326Z,99995.56
2022-09-28T10:22:06.481Z,99996.38
2022-09-28T10:24:20.106Z,99991.91
2022-09-28T10:26:29.545Z,99989.97
2022-09-28T10:28:41.440Z,99993.78
2022-09-28T10:30:45.551Z,100000.97
2022-09-28T10:32:52.934Z,99999.41
2022-09-28T10:35:15.751Z,99997.81
2022-09-28T10:37:21.279Z,99991.75
2022-09-28T10:39:38.019Z,99991.91
2022-09-28T10:41:51.554Z,99987.69
2022-09-28T10:44:08.962Z,99991.34
2022-09-28T10:46:41.946Z,99983.59
2022-09-28T10:48:55.690Z,99985.03
2022-09-28T10:51:06.653Z,99984.94
2022-09-28T10:53:20.996Z,99984.81
2022-09-28T10:56:03.358Z,99986.16
2022-09-28T10:58:27.575Z,99977.75
2022-09-28T11:00:39.531Z,99966.56
2022-09-28T11:03:01.662Z,99966.81
2022-09-28T11:05:09.472Z,99976.09
2022-09-28T11:07:21.599Z,99978.34
2022-09-28T11:09:31.103Z,99972.66
2022-09-28T11:11:42.840Z,99972.53
2022-09-28T11:13:49.803Z,99971.53
2022-09-28T11:15:59.927Z,99966.88
2022-09-28T11:18:29.703Z,99964.09
2022-09-28T11:20:36.956Z,99965.53
2022-09-28T11:22:45.155Z,99963.69
2022-09-28T11:24:50.009Z,99957.41
2022-09-28T11:26:56.963Z,99960.00
2022-09-28T11:29:04.763Z,99955.97
2022-09-28T11:31:28.153Z,99956.56
2022-09-28T11:33:40.730Z,99959.63
2022-09-28T11:36:19.499Z,99956.28
2022-09-28T11:38:35.592Z,99955.44
2022-09-28T11:41:17.957Z,99950.00
2022-09-28T11:43:39.819Z,99949.44
2022-09-28T11:45:56.080Z,99942.88
2022-09-28T11:48:03.564Z,99945.72
2022-09-28T11:50:24.170Z,99945.44
2022-09-28T11:52:36.568Z,99942.38
2022-09-28T11:54:45.604Z,99946.38
2022-09-28T11:56:51.961Z,99933.50
2022-09-28T11:59:00.277Z,99933.78
2022-09-28T12:01:23.756Z,99936.16
2022-09-28T12:03:52.564Z,99927.22
2022-09-28T12:06:01.867Z,99928.78
2022-09-28T12:08:15.638Z,99930.31
2022-09-28T12:10:55.869Z,99923.47
2022-09-28T12:13:22.830Z,99928.19
2022-09-28T12:15:42.217Z,99923.97
2022-09-28T12:17:56.074Z,99930.16
2022-09-28T12:20:07.306Z,99939.09
2022-09-28T12:22:19.090Z,99939.78
2022-09-28T12:24:29.765Z,99931.81
2022-09-28T12:26:41.180Z,99932.81
2022-09-28T12:28:50.320Z,99929.16
2022-09-28T12:30:56.331Z,99928.19
2022-09-28T12:33:05.530Z,99926.34
2022-09-28T12:35:15.085Z,99927.50
2022-09-28T12:37:33.563Z,99927.88
2022-09-28T12:39:59.365Z,99936.28
2022-09-28T12:42:17.611Z,99931.75
2022-09-28T12:44:44.035Z,99937.22
2022-09-28T12:47:19.268Z,99938.31
2022-09-28T12:50:36.314Z,99942.84
2022-09-28T12:52:00.226Z,99937.03
2022-09-28T12:54:15.519Z,99937.91
2022-09-28T12:56:31.200Z,99928.53
2022-09-28T12:59:00.146Z,99930.75
2022-09-28T13:01:19.472Z,99932.44
2022-09-28T13:03:55.114Z,99939.22
2022-09-28T13:06:20.044Z,99933.81
2022-09-28T13:08:33.594Z,99931.63
2022-09-28T13:10:43.231Z,99939.22
2022-09-28T13:13:01.878Z,99935.25
2022-09-28T13:15:34.458Z,99938.28
2022-09-28T13:17:50.761Z,99941.97
2022-09-28T13:20:00.448Z,99935.13
2022-09-28T13:22:22.326Z,99943.59
2022-09-28T13:24:33.374Z,99938.03
2022-09-28T13:26:42.151Z,99939.47
2022-09-28T13:28:48.566Z,99937.31
2022-09-28T13:30:54.051Z,99933.56
2022-09-28T13:33:03.189Z,99926.47
2022-09-28T13:35:07.977Z,99932.59
2022-09-28T13:37:25.934Z,99935.03
2022-09-28T13:39:48.951Z,99941.88
2022-09-28T13:41:54.926Z,99936.34
2022-09-28T13:44:33.218Z,99929.09
2022-09-28T13:46:46.150Z,99927.16
2022-09-28T13:49:03.518Z,99927.66
2022-09-28T13:51:22.829Z,99931.34
2022-09-28T13:53:37.227Z,99919.63
2022-09-28T13:55:55.096Z,99918.41
2022-09-28T13:58:04.863Z,99919.78
2022-09-28T14:00:22.050Z,99923.59
2022-09-28T14:02:37.037Z,99932.28
2022-09-28T14:04:57.743Z,99951.09
2022-09-28T14:07:11.862Z,99964.91
2022-09-28T14:09:47.713Z,99976.63
2022-09-28T14:12:00.129Z,99951.22
2022-09-28T14:14:16.301Z,99954.16
2022-09-28T14:16:26.973Z,99944.03
2022-09-28T14:18:33.499Z,99946.81
2022-09-28T14:20:37.900Z,99932.50
2022-09-28T14:22:58.073Z,99931.88
2022-09-28T14:25:11.569Z,99935.63
2022-09-28T14:27:33.299Z,99927.53
2022-09-28T14:29:38.566Z,99929.84
2022-09-28T14:31:45.592Z,99930.28
2022-09-28T14:33:58.838Z,99935.94
2022-09-28T14:36:05.179Z,99933.19
2022-09-28T14:38:34.146Z,99933.31
2022-09-28T14:41:18.031Z,99939.47
2022-09-28T14:43:26.113Z,99934.91
2022-09-28T14:45:38.864Z,99933.22
2022-09-28T14:47:45.731Z,99936.81
2022-09-28T14:50:00.951Z,99929.13
2022-09-28T14:52:05.859Z,99928.59
2022-09-28T14:54:19.584Z,99927.78
2022-09-28T14:56:23.627Z,99925.03
2022-09-28T14:58:30.432Z,99928.25
2022-09-28T15:00:34.634Z,99929.84
2022-09-28T15:02:40.102Z,99933.78
2022-09-28T15:04:50.046Z,99924.75
2022-09-28T15:06:55.528Z,99920.91
2022-09-28T15:08:59.414Z,99916.81
2022-09-28T15:11:03.429Z,99918.75
2022-09-28T15:13:20.231Z,99918.50
2022-09-28T15:15:32.350Z,99921.13
2022-09-28T15:17:40.059Z,99913.63
2022-09-28T15:19:53.521Z,99912.66
2022-09-28T15:21:57.140Z,99911.19
2022-09-28T15:24:00.967Z,99915.53
2022-09-28T15:26:08.704Z,99912.00
2022-09-28T15:28:22.489Z,99912.66
2022-09-28T15:30:29.674Z,99912.88
2022-09-28T15:32:33.646Z,99915.53
2022-09-28T15:34:53.012Z,99908.53
2022-09-28T15:36:59.062Z,99913.28
2022-09-28T15:39:06.958Z,99915.06
2022-09-28T15:41:11.378Z,99916.06
2022-09-28T15:43:27.289Z,99915.94
2022-09-28T15:45:38.631Z,99913.97
2022-09-28T15:47:45.241Z,99911.31
2022-09-28T15:49:58.968Z,99906.88
2022-09-28T15:52:04.681Z,99914.09
2022-09-28T15:54:19.830Z,99914.34
2022-09-28T15:56:24.427Z,99923.78
2022-09-28T15:58:29.187Z,99915.47
2022-09-28T16:00:33.403Z,99913.91
2022-09-28T16:02:37.677Z,99908.88
2022-09-28T16:04:50.786Z,99915.84
2022-09-28T16:07:26.175Z,99912.22
2022-09-28T16:09:40.235Z,99903.56
2022-09-28T16:11:44.846Z,99909.34
2022-09-28T16:14:04.673Z,99915.72
2022-09-28T16:16:16.415Z,99913.59
2022-09-28T16:18:23.829Z,99912.84
2022-09-28T16:20:32.209Z,99912.03
2022-09-28T16:22:37.406Z,99917.44
2022-09-28T16:24:41.987Z,99915.63
2022-09-28T16:26:46.535Z,99913.09
2022-09-28T16:28:52.328Z,99925.63
2022-09-28T16:31:02.477Z,99908.19
2022-09-28T16:33:07.660Z,99914.44
2022-09-28T16:35:31.115Z,99922.38
2022-09-28T16:37:35.229Z,99922.88
2022-09-28T16:39:40.474Z,99914.94
2022-09-28T16:41:48.856Z,99914.66
2022-09-28T16:43:58.395Z,99912.84
2022-09-28T16:46:09.743Z,99921.66
2022-09-28T16:48:20.779Z,99921.75
2022-09-28T16:50:25.672Z,99920.09
2022-09-28T16:52:43.195Z,99927.91
2022-09-28T16:55:22.794Z,99934.91
2022-09-28T16:57:29.394Z,99932.13
2022-09-28T16:59:33.802Z,99938.28
2022-09-28T17:01:42.604Z,99931.28
2022-09-28T17:03:47.860Z,99945.50
2022-09-28T17:05:53.162Z,99935.63
2022-09-28T17:08:02.155Z,99941.88
2022-09-28T17:10:19.580Z,99942.72
2022-09-28T17:12:30.450Z,99940.66
2022-09-28T17:14:34.434Z,99940.53
2022-09-28T17:19:04.420Z,99946.44
2022-09-28T17:21:13.978Z,99945.50
2022-09-28T17:25:24.606Z,99946.19
2022-09-28T17:27:28.581Z,99940.91
2022-09-28T17:29:33.735Z,99949.59
2022-09-28T17:31:37.617Z,99949.59
2022-09-28T17:33:41.489Z,99952.94
2022-09-28T17:35:46.226Z,99957.53
2022-09-28T17:37:49.998Z,99961.88
2022-09-28T17:39:53.647Z,99951.28
2022-09-28T17:41:59.115Z,99955.59
2022-09-28T17:44:04.233Z,99959.94
2022-09-28T17:46:19.268Z,99959.22
2022-09-28T17:48:23.818Z,99959.22
2022-09-28T17:50:29.990Z,99960.19
2022-09-28T17:52:33.917Z,99954.06
2022-09-28T17:54:37.598Z,99953.94
2022-09-28T17:56:43.005Z,99958.38
2022-09-28T17:58:49.066Z,99954.88
2022-09-28T18:00:53.898Z,99956.81
2022-09-28T18:02:59.366Z,99959.56
2022-09-28T18:05:03.795Z,99955.34
2022-09-28T18:07:07.835Z,99958.13
2022-09-28T18:09:16.957Z,99959.22
2022-09-28T18:11:20.885Z,99967.28
2022-09-28T18:13:25.214Z,99961.16
2022-09-28T18:15:30.651Z,99961.88
2022-09-28T18:17:34.427Z,99968.16
2022-09-28T18:19:38.020Z,99973.44
2022-09-28T18:21:41.903Z,99966.34
2022-09-28T18:23:45.840Z,99969.81
2022-09-28T18:25:49.940Z,99967.16
2022-09-28T18:27:57.610Z,99971.75
2022-09-28T18:30:01.891Z,99979.09
2022-09-28T18:32:07.271Z,99975.88
2022-09-28T18:34:13.983Z,99971.66
2022-09-28T18:36:17.770Z,99969.22
2022-09-28T18:38:23.111Z,99977.25
2022-09-28T18:40:27.376Z,99975.59
2022-09-28T18:42:31.832Z,99970.16
2022-09-28T18:44:35.581Z,99972.94
2022-09-28T18:46:40.105Z,99975.59
2022-09-28T18:48:45.556Z,99973.16
2022-09-28T18:50:50.452Z,99982.09
2022-09-28T18:52:57.006Z,99973.66
2022-09-28T18:55:02.268Z,99968.56
2022-09-28T18:57:05.992Z,99974.97
2022-09-28T18:59:12.333Z,99976.16
2022-09-28T19:01:34.746Z,99992.41
2022-09-28T19:03:39.488Z,99997.94
2022-09-28T19:05:46.572Z,99990.13
2022-09-28T19:07:50.592Z,99986.72
2022-09-28T19:09:54.817Z,99984.19
2022-09-28T19:11:58.731Z,99997.69
2022-09-28T19:14:04.818Z,99992.50
2022-09-28T19:16:10.186Z,99997.91
2022-09-28T19:18:14.257Z,100005.13
2022-09-28T19:20:19.029Z,100006.19
2022-09-28T19:22:24.542Z,100001.84
2022-09-28T19:24:28.892Z,100005.59
2022-09-28T19:26:35.074Z,100015.44
2022-09-28T19:28:39.470Z,100014.75
2022-09-28T19:30:43.425Z,100020.13
2022-09-28T19:32:47.966Z,100021.22
2022-09-28T19:34:51.946Z,100025.66
2022-09-28T19:36:55.827Z,100024.81
2022-09-28T19:39:03.533Z,100027.69
2022-09-28T19:41:11.057Z,100026.84
2022-09-28T19:43:15.232Z,100031.41
2022-09-28T19:45:19.508Z,100039.47
2022-09-28T19:47:23.502Z,100036.09
2022-09-28T19:49:33.749Z,100036.31
2022-09-28T19:51:46.989Z,100034.88
2022-09-28T19:54:05.341Z,100032.34
2022-09-28T19:56:09.195Z,100030.75
2022-09-28T19:58:13.432Z,100039.66
2022-09-28T20:00:17.832Z,100041.53
2022-09-28T20:02:22.339Z,100046.13
2022-09-28T20:04:26.368Z,100044.41
2022-09-28T20:06:30.667Z,100045.59
2022-09-28T20:08:34.347Z,100050.38
2022-09-28T20:10:40.146Z,100048.91
2022-09-28T20:12:44.208Z,100041.22
2022-09-28T20:14:48.058Z,100052.97
2022-09-28T20:16:52.324Z,100048.75
2022-09-28T20:19:03.362Z,100047.16
2022-09-28T20:21:09.791Z,100050.28
2022-09-28T20:23:14.139Z,100054.09
2022-09-28T20:25:18.511Z,100048.91
2022-09-28T20:27:26.430Z,100057.78
2022-09-28T20:29:31.893Z,100057.03
2022-09-28T20:31:37.780Z,100059.69
2022-09-28T20:33:43.048Z,100062.44
2022-09-28T20:35:47.370Z,100058.97
2022-09-28T20:37:51.259Z,100055.50
2022-09-28T20:39:55.667Z,100065.09
2022-09-28T20:42:00.990Z,100068.72
2022-09-28T20:44:07.715Z,100067.72
2022-09-28T20:46:13.065Z,100069.44
2022-09-28T20:48:17.143Z,100069.44
2022-09-28T20:50:22.004Z,100069.44
2022-09-28T20:52:27.235Z,100067.72
2022-09-28T20:54:31.298Z,100078.53
2022-09-28T20:56:38.417Z,100076.94
2022-09-28T20:58:42.855Z,100073.47
2022-09-28T21:00:48.561Z,100081.63
2022-09-28T21:02:55.317Z,100074.66
2022-09-28T21:04:59.400Z,100079.00
2022-09-28T21:07:03.075Z,100083.31
2022-09-28T21:09:08.655Z,100078.88
2022-09-28T21:11:12.793Z,100075.47
2022-09-28T21:13:16.866Z,100079.81
2022-09-28T21:15:20.525Z,100084.28
2022-09-28T21:17:26.135Z,100083.31
2022-09-28T21:19:30.149Z,100086.16
2022-09-28T21:21:33.944Z,100086.28
2022-09-28T21:23:38.275Z,100088.16
2022-09-28T21:25:42.331Z,100089.03
2022-09-28T21:27:46.217Z,100091.78
2022-09-28T21:29:49.976Z,100087.34
2022-09-28T21:31:53.530Z,100089.03
2022-09-28T21:33:59.272Z,100095.16
2022-09-28T21:36:05.058Z,100091.78
2022-09-28T21:38:08.623Z,100090.94
2022-09-28T21:40:12.616Z,100098.84
2022-09-28T21:42:16.346Z,100104.13
2022-09-28T21:44:20.296Z,100101.50
2022-09-28T21:46:24.974Z,100101.59
2022-09-28T21:48:31.084Z,100103.41
2022-09-28T21:50:36.245Z,100097.28
2022-09-28T21:52:40.299Z,100105.31
2022-09-28T21:54:43.907Z,100101.94
2022-09-28T21:56:47.906Z,100099.31
2022-09-28T21:58:52.367Z,100105.53
2022-09-28T22:01:03.063Z,100108.41
2022-09-28T22:03:07.200Z,100102.34
2022-09-28T22:05:12.621Z,100105.94
2022-09-28T22:07:17.916Z,100107.03
2022-09-28T22:09:21.766Z,100107.09
2022-09-28T22:11:27.121Z,100119.50
2022-09-28T22:13:31.883Z,100118.84
2022-09-28T22:15:35.961Z,100118.00
2022-09-28T22:17:39.808Z,100118.00
2022-09-28T22:19:43.533Z,100118.84
2022-09-28T22:21:47.520Z,100118.84
2022-09-28T22:23:53.220Z,100111.03
2022-09-28T22:26:01.929Z,100120.75
2022-09-28T22:28:05.817Z,100120.97
2022-09-28T22:30:11.088Z,100120.97
2022-09-28T22:32:14.880Z,100118.53
2022-09-28T22:34:18.769Z,100116.09
2022-09-28T22:36:22.845Z,100115.38
2022-09-28T22:38:27.190Z,100118.84
2022-09-28T22:40:32.538Z,100124.03
2022-09-28T22:42:36.124Z,100117.16
2022-09-28T22:44:40.796Z,100118.97
2022-09-28T22:46:44.595Z,100113.78
2022-09-28T22:48:49.126Z,100113.78
2022-09-28T22:50:53.109Z,100124.34
2022-09-28T22:52:57.141Z,100119.91
2022-09-28T22:55:00.744Z,100120.84
2022-09-28T22:57:06.021Z,100120.84
2022-09-28T22:59:09.704Z,100119.19
2022-09-28T23:01:15.865Z,100117.38
2022-09-28T23:03:19.838Z,100130.47
2022-09-28T23:05:23.743Z,100123.50
2022-09-28T23:07:27.177Z,100120.84
2022-09-28T23:09:30.862Z,100123.59
2022-09-28T23:11:34.812Z,100118.22
2022-09-28T23:13:40.234Z,100123.50
2022-09-28T23:15:44.025Z,100120.97
2022-09-28T23:17:47.720Z,100123.50
2022-09-28T23:19:51.335Z,100132.38
2022-09-28T23:21:55.467Z,100132.38
2022-09-28T23:24:01.378Z,100127.09
2022-09-28T23:26:12.338Z,100132.38
2022-09-28T23:28:16.245Z,100121.91
2022-09-28T23:30:25.038Z,100135.09
2022-09-28T23:32:32.036Z,100144.72
2022-09-28T23:34:36.045Z,100142.19
2022-09-28T23:36:39.822Z,100140.38
2022-09-28T23:38:43.624Z,100136.91
2022-09-28T23:40:48.172Z,100137.84
2022-09-28T23:42:51.957Z,100137.03
2022-09-28T23:44:55.764Z,100139.66
2022-09-28T23:47:01.216Z,100136.19
2022-09-28T23:49:04.941Z,100132.78
2022-09-28T23:51:09.241Z,100136.44
2022-09-28T23:53:14.550Z,100135.63
2022-09-28T23:55:19.223Z,100132.97
2022-09-28T23:57:23.165Z,100131.28
2022-09-28T23:59:27.165Z,100127.91
